Time;durP1;ratioP1;P1;durP2;ratioP2;P2;SDS_P1;SDS_P2;PMS_P1;PMS_P2;Temp;Humidity;BMP_temperature;BMP_pressure;BME280_temperature;BME280_humidity;BME280_pressure;Samples;Min_cycle;Max_cycle;Signal;HPM_P1;HPM_P2
2024/03/16 12:08:11;;;;;;;16.90;4.32;;;;;;;;;;4494141;31;20055;-81
2024/03/16 12:10:37;;;;;;;7.50;2.42;;;;;;;;;;4518945;26;20017;-74
2024/03/16 12:13:06;;;;;;;5.50;1.92;;;;;;;;;;4449681;32;20430;-75
2024/03/16 12:15:34;;;;;;;4.53;1.98;;;;;;;;;;4434778;32;20513;-76
2024/03/16 12:18:01;;;;;;;8.98;2.33;;;;;;;;;;4448605;32;20029;-76
2024/03/16 12:20:26;;;;;;;6.93;1.83;;;;;;;;;;4418838;32;20117;-76
2024/03/16 12:22:53;;;;;;;5.12;1.75;;;;;;;;;;4432910;32;20022;-76
2024/03/16 12:25:25;;;;;;;7.43;2.08;;;;;;;;;;4432665;32;20037;-77
2024/03/16 12:27:50;;;;;;;7.43;2.05;;;;;;;;;;4432825;32;20447;-76
2024/03/16 12:30:15;;;;;;;13.35;2.30;;;;;;;;;;4446196;32;20025;-75
2024/03/16 12:32:41;;;;;;;11.95;1.95;;;;;;;;;;4449752;32;20033;-76
2024/03/16 12:35:07;;;;;;;9.27;2.20;;;;;;;;;;4448643;32;20358;-76
2024/03/16 12:37:32;;;;;;;10.40;2.17;;;;;;;;;;4448476;32;20068;-78
2024/03/16 12:39:58;;;;;;;9.10;2.60;;;;;;;;;;4433715;32;20369;-78
2024/03/16 12:42:23;;;;;;;5.40;1.87;;;;;;;;;;4433259;32;20349;-76
2024/03/16 12:44:48;;;;;;;5.55;1.67;;;;;;;;;;4433011;32;20116;-76
2024/03/16 12:47:14;;;;;;;11.10;3.22;;;;;;;;;;4432694;32;20046;-77
2024/03/16 12:49:39;;;;;;;7.87;1.90;;;;;;;;;;4431577;32;20110;-77
2024/03/16 12:52:06;;;;;;;6.28;1.90;;;;;;;;;;4431885;32;20018;-77
2024/03/16 12:54:32;;;;;;;5.35;1.90;;;;;;;;;;4432832;32;20033;-78
2024/03/16 12:56:57;;;;;;;10.70;3.25;;;;;;;;;;4434026;32;20029;-77
2024/03/16 12:59:22;;;;;;;4.87;1.70;;;;;;;;;;4432464;32;20017;-77
2024/03/16 13:01:47;;;;;;;6.05;1.98;;;;;;;;;;4432147;32;20093;-77
2024/03/16 13:04:12;;;;;;;5.75;2.22;;;;;;;;;;4432557;32;20326;-78
2024/03/16 13:06:38;;;;;;;7.70;1.92;;;;;;;;;;4432826;32;20034;-77
2024/03/16 13:09:10;;;;;;;11.48;2.67;;;;;;;;;;4417910;32;20023;-78
2024/03/16 13:11:35;;;;;;;7.18;2.08;;;;;;;;;;4420248;32;20038;-78
2024/03/16 13:14:00;;;;;;;8.93;1.98;;;;;;;;;;4416623;32;20026;-77
2024/03/16 13:16:25;;;;;;;9.38;2.83;;;;;;;;;;4416795;32;20034;-77
2024/03/16 13:18:52;;;;;;;5.25;2.10;;;;;;;;;;4409044;32;20057;-76
2024/03/16 13:21:17;;;;;;;8.02;2.97;;;;;;;;;;4396002;32;20078;-77
2024/03/16 13:23:43;;;;;;;7.80;2.40;;;;;;;;;;4406595;32;20047;-77
2024/03/16 13:26:11;;;;;;;6.40;1.80;;;;;;;;;;4406178;32;20018;-77
2024/03/16 13:28:37;;;;;;;9.98;2.50;;;;;;;;;;4408978;32;20483;-76
2024/03/16 13:31:02;;;;;;;4.75;1.67;;;;;;;;;;4421165;32;20033;-77
2024/03/16 13:33:27;;;;;;;6.22;2.17;;;;;;;;;;4407956;32;20027;-78
2024/03/16 13:35:53;;;;;;;4.10;1.48;;;;;;;;;;4421002;32;20087;-77
2024/03/16 13:38:19;;;;;;;3.65;1.50;;;;;;;;;;4422990;32;20030;-77
2024/03/16 13:40:44;;;;;;;7.68;1.85;;;;;;;;;;4421196;32;20172;-77
2024/03/16 13:43:10;;;;;;;5.50;1.80;;;;;;;;;;4422646;32;20061;-77
2024/03/16 13:45:40;;;;;;;10.50;2.15;;;;;;;;;;4407123;32;20034;-76
2024/03/16 13:48:05;;;;;;;6.70;2.05;;;;;;;;;;4422738;32;20065;-77
2024/03/16 13:50:30;;;;;;;5.55;1.98;;;;;;;;;;4422571;32;20042;-75
2024/03/16 13:52:55;;;;;;;6.47;1.90;;;;;;;;;;4421993;32;20085;-76
2024/03/16 13:55:22;;;;;;;5.97;2.12;;;;;;;;;;4408738;32;20121;-77
2024/03/16 13:57:47;;;;;;;10.73;1.70;;;;;;;;;;4421962;32;20079;-76
2024/03/16 14:00:18;;;;;;;3.90;1.65;;;;;;;;;;4422467;32;20042;-77
2024/03/16 14:02:45;;;;;;;3.90;1.58;;;;;;;;;;4405482;32;20095;-76
2024/03/16 14:05:11;;;;;;;7.03;1.52;;;;;;;;;;4406471;32;20080;-76
2024/03/16 14:07:36;;;;;;;8.18;2.10;;;;;;;;;;4405525;32;20035;-76
2024/03/16 14:10:01;;;;;;;5.32;1.70;;;;;;;;;;4407833;32;20034;-75
2024/03/16 14:12:28;;;;;;;4.90;1.85;;;;;;;;;;4406031;32;20050;-76
2024/03/16 14:14:55;;;;;;;7.05;1.95;;;;;;;;;;4405425;32;20031;-77
2024/03/16 14:17:21;;;;;;;6.82;2.40;;;;;;;;;;4417055;32;20068;-76
2024/03/16 14:19:50;;;;;;;6.72;1.75;;;;;;;;;;4421539;32;20138;-77
2024/03/16 14:22:17;;;;;;;8.98;2.12;;;;;;;;;;4422803;32;20060;-75
2024/03/16 14:24:42;;;;;;;9.52;2.40;;;;;;;;;;4408491;32;20027;-77
2024/03/16 14:27:07;;;;;;;8.57;2.62;;;;;;;;;;4420636;32;20300;-75
2024/03/16 14:29:34;;;;;;;7.57;2.03;;;;;;;;;;4407964;32;20085;-74
2024/03/16 14:31:59;;;;;;;9.00;1.98;;;;;;;;;;4407013;32;20022;-76
2024/03/16 14:34:24;;;;;;;4.57;1.70;;;;;;;;;;4406152;32;20244;-77
2024/03/16 14:36:49;;;;;;;6.28;2.17;;;;;;;;;;4407619;32;20084;-77
2024/03/16 14:39:15;;;;;;;6.78;1.80;;;;;;;;;;4418502;32;20183;-76
2024/03/16 14:41:40;;;;;;;7.32;2.00;;;;;;;;;;4407441;32;20053;-76
2024/03/16 14:44:05;;;;;;;6.95;1.70;;;;;;;;;;4414877;32;20403;-77
2024/03/16 14:46:34;;;;;;;9.15;2.20;;;;;;;;;;4421642;32;20056;-76
2024/03/16 14:48:59;;;;;;;8.93;2.37;;;;;;;;;;4408294;32;20066;-75
2024/03/16 14:51:24;;;;;;;4.60;1.80;;;;;;;;;;4421714;32;20018;-76
2024/03/16 14:53:49;;;;;;;7.32;2.55;;;;;;;;;;4421258;32;20061;-76
2024/03/16 14:56:15;;;;;;;6.40;1.77;;;;;;;;;;4420866;32;20119;-77
2024/03/16 14:58:40;;;;;;;7.65;2.20;;;;;;;;;;4420024;32;20022;-75
2024/03/16 15:01:05;;;;;;;7.72;2.12;;;;;;;;;;4419599;32;20022;-76
2024/03/16 15:03:31;;;;;;;8.90;1.83;;;;;;;;;;4421338;32;20423;-76
2024/03/16 15:05:56;;;;;;;7.32;1.80;;;;;;;;;;4419969;32;20347;-76
2024/03/16 15:08:22;;;;;;;5.95;2.15;;;;;;;;;;4407550;32;20022;-77
2024/03/16 15:10:47;;;;;;;6.50;2.08;;;;;;;;;;4419019;32;20090;-75
2024/03/16 15:13:12;;;;;;;6.15;2.25;;;;;;;;;;4421752;32;20403;-77
2024/03/16 15:15:38;;;;;;;5.78;1.98;;;;;;;;;;4421124;32;20097;-77
2024/03/16 15:18:06;;;;;;;7.72;1.90;;;;;;;;;;4419580;32;20056;-77
2024/03/16 15:20:33;;;;;;;10.70;2.17;;;;;;;;;;4419309;32;20057;-75
2024/03/16 15:22:58;;;;;;;4.05;1.70;;;;;;;;;;4407285;32;20068;-76
2024/03/16 15:25:28;;;;;;;9.90;2.50;;;;;;;;;;4419631;32;20022;-76
2024/03/16 15:30:19;;;;;;;8.90;2.85;;;;;;;;;;4413802;32;20052;-77
2024/03/16 15:32:44;;;;;;;6.05;1.83;;;;;;;;;;4404045;32;20026;-77
2024/03/16 15:35:11;;;;;;;8.63;2.22;;;;;;;;;;4406342;32;20062;-76
2024/03/16 15:37:36;;;;;;;13.73;2.95;;;;;;;;;;4404168;32;20042;-76
2024/03/16 15:40:04;;;;;;;8.38;2.00;;;;;;;;;;4405624;32;20155;-75
2024/03/16 15:42:29;;;;;;;5.90;1.70;;;;;;;;;;4405714;32;20034;-76
2024/03/16 15:44:55;;;;;;;11.55;2.55;;;;;;;;;;4404636;32;20129;-75
2024/03/16 15:47:21;;;;;;;10.45;2.72;;;;;;;;;;4390199;32;20065;-75
2024/03/16 15:49:46;;;;;;;10.52;2.03;;;;;;;;;;4403596;32;20019;-76
2024/03/16 15:52:11;;;;;;;6.70;2.35;;;;;;;;;;4404645;32;20056;-76
2024/03/16 15:54:38;;;;;;;10.18;2.60;;;;;;;;;;4404586;32;20023;-75
2024/03/16 15:57:03;;;;;;;7.97;2.75;;;;;;;;;;4414752;32;20370;-74
2024/03/16 15:59:29;;;;;;;15.75;2.85;;;;;;;;;;4403997;32;20050;-76
2024/03/16 16:01:54;;;;;;;8.75;2.15;;;;;;;;;;4420275;32;20034;-75
2024/03/16 16:04:19;;;;;;;16.05;2.70;;;;;;;;;;4407078;32;20128;-76
2024/03/16 16:06:44;;;;;;;10.52;2.67;;;;;;;;;;4403561;32;20089;-77
2024/03/16 16:09:10;;;;;;;12.73;2.80;;;;;;;;;;4403860;32;20481;-76
2024/03/16 16:11:35;;;;;;;8.55;2.20;;;;;;;;;;4405405;32;20097;-75
2024/03/16 16:14:00;;;;;;;10.18;2.20;;;;;;;;;;4404706;32;20076;-75
2024/03/16 16:16:25;;;;;;;8.63;2.22;;;;;;;;;;4404285;32;20030;-75
2024/03/16 16:18:51;;;;;;;6.50;1.73;;;;;;;;;;4405044;32;20102;-77
2024/03/16 16:21:16;;;;;;;7.93;2.33;;;;;;;;;;4404915;32;20034;-76
2024/03/16 16:23:42;;;;;;;8.27;2.35;;;;;;;;;;4406279;32;20060;-75
2024/03/16 16:26:08;;;;;;;9.32;2.58;;;;;;;;;;4420186;32;20030;-75
2024/03/16 16:28:33;;;;;;;9.68;1.90;;;;;;;;;;4419069;32;20075;-75
2024/03/16 16:30:58;;;;;;;8.65;2.50;;;;;;;;;;4419021;32;20022;-75
2024/03/16 16:33:23;;;;;;;8.50;2.50;;;;;;;;;;4405511;32;20034;-75
2024/03/16 16:35:53;;;;;;;9.80;2.62;;;;;;;;;;4413053;32;20346;-75
2024/03/16 16:38:18;;;;;;;13.00;2.60;;;;;;;;;;4417096;32;20410;-75
2024/03/16 16:40:46;;;;;;;11.27;2.65;;;;;;;;;;4405094;32;20049;-76
2024/03/16 16:43:11;;;;;;;10.70;2.22;;;;;;;;;;4404899;32;20026;-76
2024/03/16 16:45:37;;;;;;;11.38;3.35;;;;;;;;;;4419547;32;20041;-75
2024/03/16 16:48:02;;;;;;;7.43;2.67;;;;;;;;;;4419614;32;20027;-75
2024/03/16 16:50:28;;;;;;;10.10;2.55;;;;;;;;;;4413001;32;20034;-77
2024/03/16 16:52:53;;;;;;;10.57;3.00;;;;;;;;;;4391755;32;20030;-76
2024/03/16 16:55:18;;;;;;;7.47;2.72;;;;;;;;;;4406340;32;20388;-76
2024/03/16 16:57:43;;;;;;;7.05;2.75;;;;;;;;;;4407351;32;20031;-75
2024/03/16 17:00:12;;;;;;;11.12;2.65;;;;;;;;;;4394231;32;20068;-77
2024/03/16 17:02:40;;;;;;;7.68;2.25;;;;;;;;;;4406408;32;20192;-76
2024/03/16 17:05:06;;;;;;;12.40;2.83;;;;;;;;;;4406544;32;20064;-75
2024/03/16 17:07:33;;;;;;;9.45;2.80;;;;;;;;;;4407403;32;20047;-76
2024/03/16 17:09:58;;;;;;;11.52;2.33;;;;;;;;;;4407541;32;20026;-77
2024/03/16 17:12:23;;;;;;;10.98;2.92;;;;;;;;;;4396799;32;20057;-77
2024/03/16 17:14:49;;;;;;;;;;;;;;;;;;4408468;32;20093;-78
2024/03/16 17:17:14;;;;;;;11.63;2.65;;;;;;;;;;4422775;32;19953;-77
2024/03/16 17:19:39;;;;;;;10.15;3.08;;;;;;;;;;4421920;32;20058;-76
2024/03/16 17:22:06;;;;;;;;;;;;;;;;;;4408191;32;20420;-76
2024/03/16 17:24:34;;;;;;;7.85;1.90;;;;;;;;;;4422520;32;20285;-75
2024/03/16 17:26:59;;;;;;;11.60;2.47;;;;;;;;;;4423195;32;20033;-76
2024/03/16 17:29:24;;;;;;;;;;;;;;;;;;4422871;32;20393;-77
2024/03/16 17:31:52;;;;;;;7.22;2.65;;;;;;;;;;4421774;32;19952;-77
2024/03/16 17:34:18;;;;;;;5.18;2.17;;;;;;;;;;4407389;32;20502;-76
2024/03/16 17:36:43;;;;;;;12.93;3.20;;;;;;;;;;4422315;32;20045;-77
2024/03/16 17:39:09;;;;;;;8.30;3.22;;;;;;;;;;4422004;32;20038;-76
2024/03/16 17:41:34;;;;;;;11.40;2.75;;;;;;;;;;4422479;32;20052;-77
2024/03/16 17:43:59;;;;;;;6.37;2.40;;;;;;;;;;4422756;32;20069;-78
2024/03/16 17:46:24;;;;;;;13.80;2.85;;;;;;;;;;4407580;32;20374;-78
2024/03/16 17:48:50;;;;;;;14.00;3.30;;;;;;;;;;4421444;32;20088;-79
2024/03/16 17:51:18;;;;;;;9.27;2.60;;;;;;;;;;4407793;32;20069;-79
2024/03/16 17:53:44;;;;;;;10.80;2.62;;;;;;;;;;4422556;32;20029;-75
2024/03/16 17:56:09;;;;;;;;;;;;;;;;;;4423567;32;20491;-74
2024/03/16 17:58:35;;;;;;;7.50;2.53;;;;;;;;;;4404735;32;19937;-76
2024/03/16 18:01:01;;;;;;;11.43;2.60;;;;;;;;;;4406083;32;20123;-75
2024/03/16 18:03:26;;;;;;;;;;;;;;;;;;4408040;32;20069;-75
2024/03/16 18:05:51;;;;;;;13.70;3.30;;;;;;;;;;4407000;32;19998;-75
2024/03/16 18:08:16;;;;;;;;;;;;;;;;;;4406770;32;20121;-75
2024/03/16 18:10:41;;;;;;;13.35;3.20;;;;;;;;;;4405536;32;19967;-74
2024/03/16 18:13:07;;;;;;;;;;;;;;;;;;4410339;32;20125;-74
2024/03/16 18:15:32;;;;;;;13.95;4.70;;;;;;;;;;4420566;32;19933;-74
2024/03/16 18:18:04;;;;;;;8.38;3.67;;;;;;;;;;4421864;32;20419;-73
2024/03/16 18:20:29;;;;;;;15.32;4.20;;;;;;;;;;4408339;32;20101;-74
2024/03/16 18:22:55;;;;;;;;;;;;;;;;;;4421086;32;20030;-73
2024/03/16 18:25:21;;;;;;;13.68;3.35;;;;;;;;;;4422588;32;19988;-74
2024/03/16 18:27:46;;;;;;;;;;;;;;;;;;4421961;32;20037;-74
2024/03/16 18:30:13;;;;;;;11.70;4.57;;;;;;;;;;4421030;32;20019;-74
2024/03/16 18:32:38;;;;;;;13.32;4.28;;;;;;;;;;4406561;32;20332;-76
2024/03/16 18:35:03;;;;;;;;;;;;;;;;;;4420954;32;20067;-75
2024/03/16 18:37:28;;;;;;;18.35;5.25;;;;;;;;;;4410102;32;19937;-74
2024/03/16 18:39:54;;;;;;;15.13;5.12;;;;;;;;;;4407205;32;20332;-74
2024/03/16 18:42:19;;;;;;;;;;;;;;;;;;4392349;32;20030;-75
2024/03/16 18:44:44;;;;;;;22.37;4.85;;;;;;;;;;4406157;32;19952;-73
2024/03/16 18:47:09;;;;;;;11.43;4.47;;;;;;;;;;4393162;32;20077;-75
2024/03/16 18:49:34;;;;;;;;;;;;;;;;;;4406450;32;20445;-75
2024/03/16 18:51:59;;;;;;;12.15;5.68;;;;;;;;;;4408245;32;19987;-74
2024/03/16 18:54:25;;;;;;;24.65;8.13;;;;;;;;;;4406848;32;20064;-74
2024/03/16 18:56:50;;;;;;;18.90;6.70;;;;;;;;;;4400037;32;20065;-75
2024/03/16 18:59:16;;;;;;;17.85;6.57;;;;;;;;;;4420494;32;20137;-74
2024/03/16 19:01:44;;;;;;;16.98;7.07;;;;;;;;;;4422346;32;20410;-74
2024/03/16 19:04:09;;;;;;;21.12;7.12;;;;;;;;;;4421690;32;20053;-75
2024/03/16 19:06:35;;;;;;;;;;;;;;;;;;4421304;32;20030;-75
2024/03/16 19:09:03;;;;;;;21.67;7.90;;;;;;;;;;4420164;32;20359;-74
2024/03/16 19:11:28;;;;;;;17.25;8.60;;;;;;;;;;4420027;32;20449;-75
2024/03/16 19:13:53;;;;;;;;;;;;;;;;;;4404924;32;20079;-75
2024/03/16 19:16:18;;;;;;;21.67;10.05;;;;;;;;;;4391182;32;20330;-75
2024/03/16 19:18:44;;;;;;;;;;;;;;;;;;4405081;32;20064;-75
2024/03/16 19:21:10;;;;;;;25.20;12.65;;;;;;;;;;4405441;32;19948;-75
2024/03/16 19:23:35;;;;;;;28.00;13.80;;;;;;;;;;4391116;32;20328;-74
2024/03/16 19:26:00;;;;;;;;;;;;;;;;;;4404629;32;20046;-76
2024/03/16 19:28:25;;;;;;;27.98;16.15;;;;;;;;;;4391119;32;19962;-76
2024/03/16 19:30:51;;;;;;;25.25;14.45;;;;;;;;;;4404655;32;20053;-76
2024/03/16 19:33:16;;;;;;;28.17;14.30;;;;;;;;;;4404494;32;20159;-76
2024/03/16 19:35:41;;;;;;;;;;;;;;;;;;4392975;32;20030;-74
2024/03/16 19:38:09;;;;;;;30.23;17.40;;;;;;;;;;4406238;32;20216;-76
2024/03/16 19:40:34;;;;;;;35.10;22.37;;;;;;;;;;4404904;32;20056;-76
2024/03/16 19:42:59;;;;;;;;;;;;;;;;;;4405737;32;20061;-76
2024/03/16 19:45:25;;;;;;;24.67;13.40;;;;;;;;;;4404536;32;19994;-75
2024/03/16 19:47:50;;;;;;;31.40;15.30;;;;;;;;;;4412753;32;20069;-75
2024/03/16 19:50:15;;;;;;;;;;;;;;;;;;4419897;32;20026;-77
2024/03/16 19:52:42;;;;;;;18.73;8.85;;;;;;;;;;4406039;32;19982;-76
2024/03/16 19:55:07;;;;;;;15.88;7.62;;;;;;;;;;4419439;32;20087;-77
2024/03/16 19:57:33;;;;;;;;;;;;;;;;;;4419849;32;20046;-74
2024/03/16 19:59:59;;;;;;;20.20;8.00;;;;;;;;;;4409322;32;19933;-75
2024/03/16 20:02:24;;;;;;;18.75;7.72;;;;;;;;;;4404506;32;20030;-75
2024/03/16 20:04:49;;;;;;;;;;;;;;;;;;4404766;32;20081;-75
2024/03/16 20:07:14;;;;;;;16.95;5.97;;;;;;;;;;4406106;32;19968;-76
2024/03/16 20:09:39;;;;;;;;;;;;;;;;;;4416471;32;20156;-75
2024/03/16 20:12:06;;;;;;;16.95;5.07;;;;;;;;;;4419641;32;19945;-76
2024/03/16 20:14:37;;;;;;;14.18;5.72;;;;;;;;;;4406615;32;20588;-75
2024/03/16 20:17:10;;;;;;;21.48;7.03;;;;;;;;;;4419631;32;20041;-74
2024/03/16 20:19:35;;;;;;;14.32;5.75;;;;;;;;;;4420977;32;20064;-75
2024/03/16 20:22:01;;;;;;;;;;;;;;;;;;4420745;32;20026;-75
2024/03/16 20:24:26;;;;;;;11.38;6.62;;;;;;;;;;4418742;32;20019;-75
2024/03/16 20:26:51;;;;;;;;;;;;;;;;;;4404626;32;20209;-75
2024/03/16 20:29:17;;;;;;;17.42;7.00;;;;;;;;;;4392359;32;20277;-76
2024/03/16 20:31:42;;;;;;;14.35;5.78;;;;;;;;;;4407259;32;20114;-76
2024/03/16 20:34:07;;;;;;;;;;;;;;;;;;4408803;32;20039;-75
2024/03/16 20:36:32;;;;;;;20.48;6.35;;;;;;;;;;4407546;32;19933;-76
2024/03/16 20:38:57;;;;;;;;;;;;;;;;;;4407186;32;20122;-75
2024/03/16 20:41:24;;;;;;;9.52;4.93;;;;;;;;;;4412195;32;19981;-75
2024/03/16 20:43:49;;;;;;;13.77;4.87;;;;;;;;;;4416894;32;20058;-75
2024/03/16 20:46:15;;;;;;;;;;;;;;;;;;4422215;32;20060;-76
2024/03/16 20:48:40;;;;;;;14.68;6.57;;;;;;;;;;4408110;32;20010;-76
2024/03/16 20:51:06;;;;;;;;;;;;;;;;;;4423569;32;20057;-76
2024/03/16 20:53:32;;;;;;;12.48;6.82;;;;;;;;;;4423127;32;19986;-77
2024/03/16 20:55:58;;;;;;;13.90;6.72;;;;;;;;;;4422045;32;20026;-75
2024/03/16 20:58:23;;;;;;;;;;;;;;;;;;4422117;32;20087;-73
2024/03/16 21:00:48;;;;;;;21.08;6.57;;;;;;;;;;4422858;32;19956;-75
2024/03/16 21:03:13;;;;;;;;;;;;;;;;;;4421845;32;20462;-75
2024/03/16 21:05:38;;;;;;;16.60;7.10;;;;;;;;;;4423681;32;19952;-76
2024/03/16 21:08:05;;;;;;;23.08;10.57;;;;;;;;;;4422397;32;20151;-74
2024/03/16 21:10:30;;;;;;;15.88;8.52;;;;;;;;;;4407293;32;20057;-75
2024/03/16 21:12:55;;;;;;;;;;;;;;;;;;4407936;32;20122;-75
2024/03/16 21:15:20;;;;;;;15.88;7.10;;;;;;;;;;4408353;32;20346;-75
2024/03/16 21:17:45;;;;;;;24.70;8.38;;;;;;;;;;4408182;32;20112;-76
2024/03/16 21:20:11;;;;;;;21.15;10.77;;;;;;;;;;4406424;32;20018;-76
2024/03/16 21:22:42;;;;;;;22.60;9.15;;;;;;;;;;4406219;32;20378;-75
2024/03/16 21:25:11;;;;;;;15.52;7.60;;;;;;;;;;4406244;32;20088;-76
2024/03/16 21:27:37;;;;;;;15.48;7.12;;;;;;;;;;4406627;32;20060;-76
2024/03/16 21:30:04;;;;;;;;;;;;;;;;;;4406654;32;20026;-76
2024/03/16 21:32:30;;;;;;;16.85;6.85;;;;;;;;;;4406728;32;19952;-75
2024/03/16 21:34:55;;;;;;;;;;;;;;;;;;4408248;32;20027;-73
2024/03/16 21:37:20;;;;;;;15.55;6.40;;;;;;;;;;4394026;32;20537;-75
2024/03/16 21:39:46;;;;;;;20.85;7.60;;;;;;;;;;4405745;32;20026;-74
2024/03/16 21:42:15;;;;;;;;;;;;;;;;;;4406873;32;20076;-75
2024/03/16 21:44:41;;;;;;;28.20;11.77;;;;;;;;;;4407841;32;19977;-75
2024/03/16 21:47:06;;;;;;;;;;;;;;;;;;4412709;32;20408;-75
2024/03/16 21:49:31;;;;;;;16.02;8.85;;;;;;;;;;4422403;32;19968;-75
2024/03/16 21:51:56;;;;;;;;;;;;;;;;;;4422124;32;20126;-74
2024/03/16 21:54:21;;;;;;;13.43;6.12;;;;;;;;;;4421442;32;19959;-75
2024/03/16 21:56:46;;;;;;;19.60;9.15;;;;;;;;;;4423538;32;20022;-74
2024/03/16 21:59:12;;;;;;;17.45;6.78;;;;;;;;;;4408410;32;20022;-75
2024/03/16 22:01:37;;;;;;;29.00;7.12;;;;;;;;;;4421973;32;20140;-75
2024/03/16 22:04:03;;;;;;;15.55;6.75;;;;;;;;;;4422653;32;20091;-75
2024/03/16 22:06:28;;;;;;;20.60;7.22;;;;;;;;;;4422767;32;20441;-77
2024/03/16 22:08:53;;;;;;;16.55;6.95;;;;;;;;;;4422308;32;20045;-74
2024/03/16 22:11:19;;;;;;;17.75;7.40;;;;;;;;;;4420932;32;20069;-76
2024/03/16 22:13:44;;;;;;;;;;;;;;;;;;4407650;32;20027;-75
2024/03/16 22:16:09;;;;;;;18.80;7.72;;;;;;;;;;4405392;32;19968;-76
2024/03/16 22:18:37;;;;;;;;;;;;;;;;;;4421687;32;20148;-75
2024/03/16 22:21:02;;;;;;;;;;;;;;;;;;4407311;32;19929;-75
2024/03/16 22:23:27;;;;;;;27.52;7.53;;;;;;;;;;4420555;32;19944;-76
2024/03/16 22:25:53;;;;;;;16.95;6.30;;;;;;;;;;4408410;32;20034;-75
2024/03/16 22:28:18;;;;;;;;;;;;;;;;;;4421346;32;20058;-75
2024/03/16 22:30:43;;;;;;;14.25;6.65;;;;;;;;;;4421706;32;19993;-76
2024/03/16 22:33:10;;;;;;;11.48;6.15;;;;;;;;;;4420006;32;20030;-76
2024/03/16 22:35:35;;;;;;;9.82;5.90;;;;;;;;;;4420287;32;20071;-73
2024/03/16 22:38:01;;;;;;;;;;;;;;;;;;4421948;32;20042;-74
2024/03/16 22:40:26;;;;;;;10.23;5.28;;;;;;;;;;4420870;32;19941;-72
2024/03/16 22:42:51;;;;;;;;;;;;;;;;;;4420611;32;20068;-74
2024/03/16 22:45:18;;;;;;;15.45;5.07;;;;;;;;;;4407706;32;19963;-73
2024/03/16 22:47:43;;;;;;;13.35;5.28;;;;;;;;;;4420547;32;20204;-74
2024/03/16 22:50:08;;;;;;;;;;;;;;;;;;4420510;32;20045;-74
2024/03/16 22:52:33;;;;;;;15.20;5.10;;;;;;;;;;4419853;32;20244;-74
2024/03/16 22:54:59;;;;;;;16.83;5.43;;;;;;;;;;4421124;32;20460;-73
2024/03/16 22:57:24;;;;;;;;;;;;;;;;;;4420987;32;20026;-72
2024/03/16 22:59:49;;;;;;;14.60;5.50;;;;;;;;;;4420399;32;19986;-74
2024/03/16 23:02:15;;;;;;;12.32;5.43;;;;;;;;;;4420724;32;20026;-73
2024/03/16 23:04:40;;;;;;;;;;;;;;;;;;4421407;32;20122;-74
2024/03/16 23:07:06;;;;;;;17.70;5.57;;;;;;;;;;4408575;32;19984;-74
2024/03/16 23:09:32;;;;;;;13.38;6.35;;;;;;;;;;4420433;32;20187;-75
2024/03/16 23:11:58;;;;;;;;;;;;;;;;;;4421885;32;20046;-73
2024/03/16 23:14:23;;;;;;;15.52;6.22;;;;;;;;;;4420091;32;19933;-75
2024/03/16 23:16:48;;;;;;;;;;;;;;;;;;4422089;32;20082;-74
2024/03/16 23:19:13;;;;;;;15.20;6.00;;;;;;;;;;4406319;32;20010;-75
2024/03/16 23:21:38;;;;;;;;;;;;;;;;;;4422133;32;20470;-74
2024/03/16 23:24:04;;;;;;;17.45;6.07;;;;;;;;;;4421667;32;19989;-74
2024/03/16 23:26:32;;;;;;;16.67;6.03;;;;;;;;;;4420017;32;20133;-73
2024/03/16 23:28:57;;;;;;;20.58;7.07;;;;;;;;;;4405952;32;20022;-73
2024/03/16 23:31:24;;;;;;;;;;;;;;;;;;4422381;32;20026;-73
2024/03/16 23:33:50;;;;;;;16.55;7.20;;;;;;;;;;4421571;32;19980;-72
2024/03/16 23:36:18;;;;;;;17.83;6.15;;;;;;;;;;4419967;32;20029;-74
2024/03/16 23:38:43;;;;;;;14.55;7.28;;;;;;;;;;4406169;32;20100;-74
2024/03/16 23:41:08;;;;;;;;;;;;;;;;;;4407916;32;20058;-74
2024/03/16 23:43:33;;;;;;;16.37;7.25;;;;;;;;;;4419929;32;19970;-75
2024/03/16 23:45:59;;;;;;;15.48;6.15;;;;;;;;;;4420032;32;20056;-75
2024/03/16 23:48:24;;;;;;;22.95;7.87;;;;;;;;;;4421459;32;20381;-75
2024/03/16 23:50:49;;;;;;;;;;;;;;;;;;4420212;32;20034;-74
2024/03/16 23:53:14;;;;;;;15.30;6.32;;;;;;;;;;4421324;32;19947;-74
2024/03/16 23:55:40;;;;;;;22.25;6.95;;;;;;;;;;4406557;32;20485;-75
2024/03/16 23:58:06;;;;;;;20.37;7.25;;;;;;;;;;4421316;32;20086;-75
